sensor_id;sensor_type;location;lat;lon;timestamp;P1;durP1;ratioP1;P2;durP2;ratioP2
8327;SDS011;4201;48.754;8.864;2023-04-25T00:00:09;4.20;;;2.60;;
8327;SDS011;4201;48.754;8.864;2023-04-25T00:02:35;6.40;;;3.53;;
8327;SDS011;4201;48.754;8.864;2023-04-25T00:05:02;5.80;;;3.20;;
8327;SDS011;4201;48.754;8.864;2023-04-25T00:07:28;4.87;;;3.47;;
8327;SDS011;4201;48.754;8.864;2023-04-25T00:09:54;8.20;;;3.63;;
8327;SDS011;4201;48.754;8.864;2023-04-25T00:12:22;12.40;;;3.60;;
8327;SDS011;4201;48.754;8.864;2023-04-25T00:14:48;6.00;;;3.50;;
8327;SDS011;4201;48.754;8.864;2023-04-25T00:17:16;6.30;;;2.73;;
8327;SDS011;4201;48.754;8.864;2023-04-25T00:19:42;4.10;;;3.20;;
8327;SDS011;4201;48.754;8.864;2023-04-25T00:22:09;7.30;;;3.63;;
8327;SDS011;4201;48.754;8.864;2023-04-25T00:24:35;6.37;;;3.30;;
8327;SDS011;4201;48.754;8.864;2023-04-25T00:27:02;5.27;;;3.33;;
8327;SDS011;4201;48.754;8.864;2023-04-25T00:29:29;6.47;;;3.50;;
8327;SDS011;4201;48.754;8.864;2023-04-25T00:31:55;6.40;;;3.70;;
8327;SDS011;4201;48.754;8.864;2023-04-25T00:34:22;6.47;;;3.70;;
8327;SDS011;4201;48.754;8.864;2023-04-25T00:36:48;6.83;;;3.83;;
8327;SDS011;4201;48.754;8.864;2023-04-25T00:39:14;5.50;;;4.10;;
8327;SDS011;4201;48.754;8.864;2023-04-25T00:41:40;6.60;;;4.37;;
8327;SDS011;4201;48.754;8.864;2023-04-25T00:44:08;6.50;;;4.20;;
8327;SDS011;4201;48.754;8.864;2023-04-25T00:46:37;5.30;;;3.80;;
8327;SDS011;4201;48.754;8.864;2023-04-25T00:49:04;6.27;;;3.60;;
8327;SDS011;4201;48.754;8.864;2023-04-25T00:51:30;6.80;;;3.17;;
8327;SDS011;4201;48.754;8.864;2023-04-25T00:53:58;5.60;;;3.87;;
8327;SDS011;4201;48.754;8.864;2023-04-25T00:56:25;5.67;;;4.03;;
8327;SDS011;4201;48.754;8.864;2023-04-25T00:58:51;6.17;;;3.80;;
8327;SDS011;4201;48.754;8.864;2023-04-25T01:01:18;5.90;;;3.67;;
8327;SDS011;4201;48.754;8.864;2023-04-25T01:03:46;4.97;;;3.47;;
8327;SDS011;4201;48.754;8.864;2023-04-25T01:06:14;4.90;;;3.17;;
8327;SDS011;4201;48.754;8.864;2023-04-25T01:08:41;5.30;;;3.23;;
8327;SDS011;4201;48.754;8.864;2023-04-25T01:11:07;5.00;;;3.40;;
8327;SDS011;4201;48.754;8.864;2023-04-25T01:13:34;5.17;;;3.60;;
8327;SDS011;4201;48.754;8.864;2023-04-25T01:16:01;5.00;;;3.50;;
8327;SDS011;4201;48.754;8.864;2023-04-25T01:18:27;5.50;;;3.43;;
8327;SDS011;4201;48.754;8.864;2023-04-25T01:20:55;5.93;;;4.03;;
8327;SDS011;4201;48.754;8.864;2023-04-25T01:23:22;7.30;;;3.73;;
8327;SDS011;4201;48.754;8.864;2023-04-25T01:25:49;5.00;;;3.37;;
8327;SDS011;4201;48.754;8.864;2023-04-25T01:28:15;7.00;;;4.10;;
8327;SDS011;4201;48.754;8.864;2023-04-25T01:30:42;7.33;;;3.63;;
8327;SDS011;4201;48.754;8.864;2023-04-25T01:33:09;6.20;;;3.93;;
8327;SDS011;4201;48.754;8.864;2023-04-25T01:35:35;5.13;;;4.13;;
8327;SDS011;4201;48.754;8.864;2023-04-25T01:38:01;7.90;;;3.37;;
8327;SDS011;4201;48.754;8.864;2023-04-25T01:40:29;5.30;;;3.40;;
8327;SDS011;4201;48.754;8.864;2023-04-25T01:42:55;3.90;;;3.13;;
8327;SDS011;4201;48.754;8.864;2023-04-25T01:45:21;6.37;;;4.10;;
8327;SDS011;4201;48.754;8.864;2023-04-25T01:47:47;7.57;;;3.83;;
8327;SDS011;4201;48.754;8.864;2023-04-25T01:50:15;5.20;;;3.60;;
8327;SDS011;4201;48.754;8.864;2023-04-25T01:52:42;4.40;;;3.23;;
8327;SDS011;4201;48.754;8.864;2023-04-25T01:55:08;10.00;;;4.00;;
8327;SDS011;4201;48.754;8.864;2023-04-25T01:57:36;7.23;;;4.30;;
8327;SDS011;4201;48.754;8.864;2023-04-25T02:00:03;15.80;;;4.00;;
8327;SDS011;4201;48.754;8.864;2023-04-25T02:02:30;5.13;;;3.60;;
8327;SDS011;4201;48.754;8.864;2023-04-25T02:04:56;5.23;;;3.60;;
8327;SDS011;4201;48.754;8.864;2023-04-25T02:07:22;8.13;;;3.97;;
8327;SDS011;4201;48.754;8.864;2023-04-25T02:09:48;7.07;;;3.93;;
8327;SDS011;4201;48.754;8.864;2023-04-25T02:12:15;8.93;;;3.90;;
8327;SDS011;4201;48.754;8.864;2023-04-25T02:14:42;6.80;;;4.23;;
8327;SDS011;4201;48.754;8.864;2023-04-25T02:17:08;6.20;;;3.97;;
8327;SDS011;4201;48.754;8.864;2023-04-25T02:19:35;7.50;;;4.43;;
8327;SDS011;4201;48.754;8.864;2023-04-25T02:22:01;5.00;;;3.80;;
8327;SDS011;4201;48.754;8.864;2023-04-25T02:24:27;9.83;;;5.40;;
8327;SDS011;4201;48.754;8.864;2023-04-25T02:26:54;5.90;;;3.90;;
8327;SDS011;4201;48.754;8.864;2023-04-25T02:29:20;16.77;;;4.73;;
8327;SDS011;4201;48.754;8.864;2023-04-25T02:31:48;8.33;;;4.23;;
8327;SDS011;4201;48.754;8.864;2023-04-25T02:34:14;7.50;;;3.93;;
8327;SDS011;4201;48.754;8.864;2023-04-25T02:36:40;6.43;;;3.73;;
8327;SDS011;4201;48.754;8.864;2023-04-25T02:39:07;5.50;;;3.47;;
8327;SDS011;4201;48.754;8.864;2023-04-25T02:41:33;7.83;;;3.90;;
8327;SDS011;4201;48.754;8.864;2023-04-25T02:43:59;5.97;;;4.37;;
8327;SDS011;4201;48.754;8.864;2023-04-25T02:46:26;7.50;;;4.97;;
8327;SDS011;4201;48.754;8.864;2023-04-25T02:48:53;7.87;;;3.87;;
8327;SDS011;4201;48.754;8.864;2023-04-25T02:51:19;7.90;;;4.10;;
8327;SDS011;4201;48.754;8.864;2023-04-25T02:53:46;9.27;;;3.90;;
8327;SDS011;4201;48.754;8.864;2023-04-25T02:56:12;7.20;;;4.10;;
8327;SDS011;4201;48.754;8.864;2023-04-25T02:58:38;5.73;;;4.03;;
8327;SDS011;4201;48.754;8.864;2023-04-25T03:01:04;7.10;;;4.20;;
8327;SDS011;4201;48.754;8.864;2023-04-25T03:03:31;5.60;;;4.23;;
8327;SDS011;4201;48.754;8.864;2023-04-25T03:05:58;9.63;;;5.67;;
8327;SDS011;4201;48.754;8.864;2023-04-25T03:08:24;5.37;;;4.07;;
8327;SDS011;4201;48.754;8.864;2023-04-25T03:10:54;8.63;;;4.37;;
8327;SDS011;4201;48.754;8.864;2023-04-25T03:13:20;7.90;;;3.90;;
8327;SDS011;4201;48.754;8.864;2023-04-25T03:15:46;9.70;;;4.60;;
8327;SDS011;4201;48.754;8.864;2023-04-25T03:18:13;6.73;;;4.40;;
8327;SDS011;4201;48.754;8.864;2023-04-25T03:20:39;5.90;;;4.30;;
8327;SDS011;4201;48.754;8.864;2023-04-25T03:23:08;5.13;;;3.67;;
8327;SDS011;4201;48.754;8.864;2023-04-25T03:25:34;6.00;;;4.07;;
8327;SDS011;4201;48.754;8.864;2023-04-25T03:28:00;6.83;;;4.10;;
8327;SDS011;4201;48.754;8.864;2023-04-25T03:30:26;12.73;;;6.33;;
8327;SDS011;4201;48.754;8.864;2023-04-25T03:32:52;14.10;;;6.87;;
8327;SDS011;4201;48.754;8.864;2023-04-25T03:35:19;12.10;;;6.50;;
8327;SDS011;4201;48.754;8.864;2023-04-25T03:37:45;9.73;;;6.07;;
8327;SDS011;4201;48.754;8.864;2023-04-25T03:40:12;7.47;;;4.77;;
8327;SDS011;4201;48.754;8.864;2023-04-25T03:42:39;7.27;;;4.23;;
8327;SDS011;4201;48.754;8.864;2023-04-25T03:45:05;6.13;;;4.67;;
8327;SDS011;4201;48.754;8.864;2023-04-25T03:47:32;6.77;;;4.47;;
8327;SDS011;4201;48.754;8.864;2023-04-25T03:49:58;5.70;;;4.60;;
8327;SDS011;4201;48.754;8.864;2023-04-25T03:52:26;10.07;;;5.70;;
8327;SDS011;4201;48.754;8.864;2023-04-25T03:54:52;6.97;;;4.47;;
8327;SDS011;4201;48.754;8.864;2023-04-25T03:57:20;6.67;;;4.37;;
8327;SDS011;4201;48.754;8.864;2023-04-25T03:59:46;9.57;;;5.30;;
8327;SDS011;4201;48.754;8.864;2023-04-25T04:02:12;7.23;;;5.63;;
8327;SDS011;4201;48.754;8.864;2023-04-25T04:04:39;9.13;;;5.73;;
8327;SDS011;4201;48.754;8.864;2023-04-25T04:07:05;10.00;;;4.97;;
8327;SDS011;4201;48.754;8.864;2023-04-25T04:09:31;9.00;;;5.13;;
8327;SDS011;4201;48.754;8.864;2023-04-25T04:11:58;7.80;;;5.10;;
8327;SDS011;4201;48.754;8.864;2023-04-25T04:14:25;8.90;;;5.70;;
8327;SDS011;4201;48.754;8.864;2023-04-25T04:16:51;6.67;;;5.13;;
8327;SDS011;4201;48.754;8.864;2023-04-25T04:19:18;12.93;;;5.90;;
8327;SDS011;4201;48.754;8.864;2023-04-25T04:21:44;10.03;;;5.60;;
8327;SDS011;4201;48.754;8.864;2023-04-25T04:24:10;6.00;;;4.77;;
8327;SDS011;4201;48.754;8.864;2023-04-25T04:26:36;7.20;;;4.90;;
8327;SDS011;4201;48.754;8.864;2023-04-25T04:29:03;8.40;;;5.57;;
8327;SDS011;4201;48.754;8.864;2023-04-25T04:31:31;8.10;;;6.17;;
8327;SDS011;4201;48.754;8.864;2023-04-25T04:33:57;8.60;;;5.50;;
8327;SDS011;4201;48.754;8.864;2023-04-25T04:36:23;9.70;;;5.93;;
8327;SDS011;4201;48.754;8.864;2023-04-25T04:38:51;7.90;;;5.80;;
8327;SDS011;4201;48.754;8.864;2023-04-25T04:41:17;9.60;;;5.40;;
8327;SDS011;4201;48.754;8.864;2023-04-25T04:43:44;6.20;;;5.17;;
8327;SDS011;4201;48.754;8.864;2023-04-25T04:46:10;9.40;;;5.47;;
8327;SDS011;4201;48.754;8.864;2023-04-25T04:48:39;7.20;;;5.60;;
8327;SDS011;4201;48.754;8.864;2023-04-25T04:51:05;10.30;;;5.60;;
8327;SDS011;4201;48.754;8.864;2023-04-25T04:53:32;8.97;;;5.80;;
8327;SDS011;4201;48.754;8.864;2023-04-25T04:55:58;7.87;;;5.70;;
8327;SDS011;4201;48.754;8.864;2023-04-25T04:58:24;7.00;;;5.33;;
8327;SDS011;4201;48.754;8.864;2023-04-25T05:00:53;8.57;;;5.30;;
8327;SDS011;4201;48.754;8.864;2023-04-25T05:03:20;7.03;;;6.00;;
8327;SDS011;4201;48.754;8.864;2023-04-25T05:05:47;12.50;;;6.10;;
8327;SDS011;4201;48.754;8.864;2023-04-25T05:08:14;8.03;;;6.03;;
8327;SDS011;4201;48.754;8.864;2023-04-25T05:10:40;9.10;;;6.67;;
8327;SDS011;4201;48.754;8.864;2023-04-25T05:13:06;11.17;;;6.27;;
8327;SDS011;4201;48.754;8.864;2023-04-25T05:15:33;12.73;;;6.63;;
8327;SDS011;4201;48.754;8.864;2023-04-25T05:17:59;9.20;;;6.47;;
8327;SDS011;4201;48.754;8.864;2023-04-25T05:20:26;10.60;;;7.20;;
8327;SDS011;4201;48.754;8.864;2023-04-25T05:22:54;11.33;;;7.43;;
8327;SDS011;4201;48.754;8.864;2023-04-25T05:25:21;10.37;;;6.70;;
8327;SDS011;4201;48.754;8.864;2023-04-25T05:27:47;9.93;;;6.50;;
8327;SDS011;4201;48.754;8.864;2023-04-25T05:30:13;13.63;;;7.17;;
8327;SDS011;4201;48.754;8.864;2023-04-25T05:32:39;11.77;;;6.87;;
8327;SDS011;4201;48.754;8.864;2023-04-25T05:35:06;8.90;;;6.60;;
8327;SDS011;4201;48.754;8.864;2023-04-25T05:37:32;10.80;;;7.40;;
8327;SDS011;4201;48.754;8.864;2023-04-25T05:40:00;7.87;;;6.57;;
8327;SDS011;4201;48.754;8.864;2023-04-25T05:42:31;6.40;;;5.70;;
8327;SDS011;4201;48.754;8.864;2023-04-25T05:44:57;9.20;;;6.00;;
8327;SDS011;4201;48.754;8.864;2023-04-25T05:47:24;7.87;;;6.03;;
8327;SDS011;4201;48.754;8.864;2023-04-25T05:49:50;7.63;;;5.60;;
8327;SDS011;4201;48.754;8.864;2023-04-25T05:52:16;9.80;;;6.27;;
8327;SDS011;4201;48.754;8.864;2023-04-25T05:54:42;9.20;;;6.97;;
8327;SDS011;4201;48.754;8.864;2023-04-25T05:57:14;18.30;;;6.47;;
8327;SDS011;4201;48.754;8.864;2023-04-25T05:59:43;10.23;;;6.53;;
8327;SDS011;4201;48.754;8.864;2023-04-25T06:02:10;9.60;;;5.87;;
8327;SDS011;4201;48.754;8.864;2023-04-25T06:04:36;8.63;;;5.53;;
8327;SDS011;4201;48.754;8.864;2023-04-25T06:07:02;8.67;;;6.73;;
8327;SDS011;4201;48.754;8.864;2023-04-25T06:09:28;7.43;;;5.53;;
8327;SDS011;4201;48.754;8.864;2023-04-25T06:11:55;12.13;;;7.40;;
8327;SDS011;4201;48.754;8.864;2023-04-25T06:14:22;10.37;;;5.90;;
8327;SDS011;4201;48.754;8.864;2023-04-25T06:16:48;6.73;;;5.70;;
8327;SDS011;4201;48.754;8.864;2023-04-25T06:19:15;11.07;;;5.90;;
8327;SDS011;4201;48.754;8.864;2023-04-25T06:21:42;8.33;;;6.63;;
8327;SDS011;4201;48.754;8.864;2023-04-25T06:24:09;8.47;;;6.37;;
8327;SDS011;4201;48.754;8.864;2023-04-25T06:26:35;10.23;;;7.03;;
8327;SDS011;4201;48.754;8.864;2023-04-25T06:29:01;8.87;;;6.33;;
8327;SDS011;4201;48.754;8.864;2023-04-25T06:31:29;7.10;;;5.80;;
8327;SDS011;4201;48.754;8.864;2023-04-25T06:33:57;9.43;;;6.10;;
8327;SDS011;4201;48.754;8.864;2023-04-25T06:36:23;12.03;;;6.77;;
8327;SDS011;4201;48.754;8.864;2023-04-25T06:38:50;11.40;;;7.37;;
8327;SDS011;4201;48.754;8.864;2023-04-25T06:41:17;6.50;;;5.30;;
8327;SDS011;4201;48.754;8.864;2023-04-25T06:43:43;6.93;;;6.23;;
8327;SDS011;4201;48.754;8.864;2023-04-25T06:46:10;7.57;;;5.77;;
8327;SDS011;4201;48.754;8.864;2023-04-25T06:48:37;9.00;;;5.70;;
8327;SDS011;4201;48.754;8.864;2023-04-25T06:51:04;8.20;;;6.70;;
8327;SDS011;4201;48.754;8.864;2023-04-25T06:53:30;8.60;;;5.73;;
8327;SDS011;4201;48.754;8.864;2023-04-25T06:55:56;8.77;;;6.83;;
8327;SDS011;4201;48.754;8.864;2023-04-25T06:58:22;8.40;;;7.00;;
8327;SDS011;4201;48.754;8.864;2023-04-25T07:00:49;7.03;;;5.80;;
8327;SDS011;4201;48.754;8.864;2023-04-25T07:03:15;8.63;;;7.00;;
8327;SDS011;4201;48.754;8.864;2023-04-25T07:05:43;7.67;;;6.23;;
8327;SDS011;4201;48.754;8.864;2023-04-25T07:08:10;7.90;;;6.60;;
8327;SDS011;4201;48.754;8.864;2023-04-25T07:10:37;10.40;;;6.97;;
8327;SDS011;4201;48.754;8.864;2023-04-25T07:13:03;8.43;;;6.57;;
8327;SDS011;4201;48.754;8.864;2023-04-25T07:15:29;9.87;;;7.37;;
8327;SDS011;4201;48.754;8.864;2023-04-25T07:17:56;10.20;;;7.23;;
8327;SDS011;4201;48.754;8.864;2023-04-25T07:20:22;8.30;;;6.60;;
8327;SDS011;4201;48.754;8.864;2023-04-25T07:22:49;8.93;;;7.17;;
8327;SDS011;4201;48.754;8.864;2023-04-25T07:25:16;8.63;;;6.83;;
8327;SDS011;4201;48.754;8.864;2023-04-25T07:27:42;7.93;;;6.67;;
8327;SDS011;4201;48.754;8.864;2023-04-25T07:30:08;8.50;;;6.47;;
8327;SDS011;4201;48.754;8.864;2023-04-25T07:32:35;11.77;;;5.90;;
8327;SDS011;4201;48.754;8.864;2023-04-25T07:35:01;9.50;;;6.80;;
8327;SDS011;4201;48.754;8.864;2023-04-25T07:37:28;8.63;;;6.40;;
8327;SDS011;4201;48.754;8.864;2023-04-25T07:39:55;7.60;;;6.33;;
8327;SDS011;4201;48.754;8.864;2023-04-25T07:42:22;9.87;;;6.07;;
8327;SDS011;4201;48.754;8.864;2023-04-25T07:44:48;10.07;;;7.40;;
8327;SDS011;4201;48.754;8.864;2023-04-25T07:47:15;13.13;;;8.00;;
8327;SDS011;4201;48.754;8.864;2023-04-25T07:49:41;11.07;;;8.60;;
8327;SDS011;4201;48.754;8.864;2023-04-25T07:52:07;10.07;;;7.47;;
8327;SDS011;4201;48.754;8.864;2023-04-25T07:54:34;9.17;;;7.43;;
8327;SDS011;4201;48.754;8.864;2023-04-25T07:57:01;10.17;;;7.60;;
8327;SDS011;4201;48.754;8.864;2023-04-25T07:59:28;8.23;;;6.53;;
8327;SDS011;4201;48.754;8.864;2023-04-25T08:01:54;11.10;;;7.70;;
8327;SDS011;4201;48.754;8.864;2023-04-25T08:04:22;10.43;;;7.70;;
8327;SDS011;4201;48.754;8.864;2023-04-25T08:06:48;9.63;;;7.90;;
8327;SDS011;4201;48.754;8.864;2023-04-25T08:09:15;10.23;;;7.50;;
8327;SDS011;4201;48.754;8.864;2023-04-25T08:11:41;14.90;;;8.07;;
8327;SDS011;4201;48.754;8.864;2023-04-25T08:14:09;11.13;;;8.40;;
8327;SDS011;4201;48.754;8.864;2023-04-25T08:16:36;12.03;;;7.73;;
8327;SDS011;4201;48.754;8.864;2023-04-25T08:19:02;9.10;;;7.47;;
8327;SDS011;4201;48.754;8.864;2023-04-25T08:21:29;10.23;;;8.37;;
8327;SDS011;4201;48.754;8.864;2023-04-25T08:23:56;12.60;;;8.63;;
8327;SDS011;4201;48.754;8.864;2023-04-25T08:26:23;10.97;;;8.30;;
8327;SDS011;4201;48.754;8.864;2023-04-25T08:28:49;10.33;;;7.90;;
8327;SDS011;4201;48.754;8.864;2023-04-25T08:31:17;12.70;;;7.17;;
8327;SDS011;4201;48.754;8.864;2023-04-25T08:33:43;10.83;;;7.37;;
8327;SDS011;4201;48.754;8.864;2023-04-25T08:36:09;11.20;;;7.53;;
8327;SDS011;4201;48.754;8.864;2023-04-25T08:38:35;8.87;;;7.17;;
8327;SDS011;4201;48.754;8.864;2023-04-25T08:41:02;11.13;;;7.73;;
8327;SDS011;4201;48.754;8.864;2023-04-25T08:43:29;10.27;;;7.27;;
8327;SDS011;4201;48.754;8.864;2023-04-25T08:45:56;10.17;;;7.80;;
8327;SDS011;4201;48.754;8.864;2023-04-25T08:48:26;7.40;;;6.50;;
8327;SDS011;4201;48.754;8.864;2023-04-25T08:50:53;7.03;;;6.07;;
8327;SDS011;4201;48.754;8.864;2023-04-25T08:53:21;10.67;;;6.53;;
8327;SDS011;4201;48.754;8.864;2023-04-25T08:55:48;7.63;;;5.53;;
8327;SDS011;4201;48.754;8.864;2023-04-25T08:58:14;6.73;;;5.03;;
8327;SDS011;4201;48.754;8.864;2023-04-25T09:00:41;8.83;;;6.00;;
8327;SDS011;4201;48.754;8.864;2023-04-25T09:03:07;6.80;;;5.03;;
8327;SDS011;4201;48.754;8.864;2023-04-25T09:05:35;5.30;;;4.17;;
8327;SDS011;4201;48.754;8.864;2023-04-25T09:08:01;6.77;;;3.67;;
8327;SDS011;4201;48.754;8.864;2023-04-25T09:10:27;4.07;;;2.90;;
8327;SDS011;4201;48.754;8.864;2023-04-25T09:13:03;6.50;;;2.07;;
8327;SDS011;4201;48.754;8.864;2023-04-25T09:15:31;4.90;;;2.10;;
8327;SDS011;4201;48.754;8.864;2023-04-25T09:17:57;2.73;;;1.73;;
8327;SDS011;4201;48.754;8.864;2023-04-25T09:20:24;3.20;;;2.00;;
8327;SDS011;4201;48.754;8.864;2023-04-25T09:23:01;3.00;;;2.03;;
8327;SDS011;4201;48.754;8.864;2023-04-25T09:25:28;2.40;;;1.40;;
8327;SDS011;4201;48.754;8.864;2023-04-25T09:27:59;2.60;;;1.57;;
8327;SDS011;4201;48.754;8.864;2023-04-25T09:30:29;3.97;;;1.57;;
8327;SDS011;4201;48.754;8.864;2023-04-25T09:32:56;3.90;;;1.83;;
8327;SDS011;4201;48.754;8.864;2023-04-25T09:35:25;3.27;;;1.60;;
8327;SDS011;4201;48.754;8.864;2023-04-25T09:37:52;2.40;;;1.53;;
8327;SDS011;4201;48.754;8.864;2023-04-25T09:40:23;2.83;;;1.60;;
8327;SDS011;4201;48.754;8.864;2023-04-25T09:42:49;2.37;;;1.20;;
8327;SDS011;4201;48.754;8.864;2023-04-25T09:45:15;2.37;;;1.40;;
8327;SDS011;4201;48.754;8.864;2023-04-25T09:47:41;2.27;;;1.37;;
8327;SDS011;4201;48.754;8.864;2023-04-25T09:50:13;2.10;;;1.27;;
8327;SDS011;4201;48.754;8.864;2023-04-25T09:52:40;3.40;;;1.30;;
8327;SDS011;4201;48.754;8.864;2023-04-25T09:55:06;3.57;;;1.70;;
8327;SDS011;4201;48.754;8.864;2023-04-25T09:57:34;2.70;;;1.33;;
8327;SDS011;4201;48.754;8.864;2023-04-25T10:00:05;2.40;;;1.20;;
8327;SDS011;4201;48.754;8.864;2023-04-25T10:02:34;2.97;;;1.80;;
8327;SDS011;4201;48.754;8.864;2023-04-25T10:05:01;2.00;;;1.00;;
8327;SDS011;4201;48.754;8.864;2023-04-25T10:07:30;2.50;;;1.40;;
8327;SDS011;4201;48.754;8.864;2023-04-25T10:09:58;3.40;;;1.20;;
8327;SDS011;4201;48.754;8.864;2023-04-25T10:12:25;3.17;;;1.47;;
8327;SDS011;4201;48.754;8.864;2023-04-25T10:14:53;1.80;;;1.00;;
8327;SDS011;4201;48.754;8.864;2023-04-25T10:17:20;2.03;;;1.17;;
8327;SDS011;4201;48.754;8.864;2023-04-25T10:19:46;2.80;;;1.33;;
8327;SDS011;4201;48.754;8.864;2023-04-25T10:22:14;2.50;;;1.50;;
8327;SDS011;4201;48.754;8.864;2023-04-25T10:24:43;2.73;;;1.40;;
8327;SDS011;4201;48.754;8.864;2023-04-25T10:27:11;2.73;;;1.40;;
8327;SDS011;4201;48.754;8.864;2023-04-25T10:29:37;2.90;;;1.13;;
8327;SDS011;4201;48.754;8.864;2023-04-25T10:32:05;2.00;;;0.97;;
8327;SDS011;4201;48.754;8.864;2023-04-25T10:34:38;2.00;;;0.90;;
8327;SDS011;4201;48.754;8.864;2023-04-25T10:37:05;2.10;;;1.13;;
8327;SDS011;4201;48.754;8.864;2023-04-25T10:39:34;2.73;;;1.20;;
8327;SDS011;4201;48.754;8.864;2023-04-25T10:42:01;2.40;;;1.20;;
8327;SDS011;4201;48.754;8.864;2023-04-25T10:44:28;2.40;;;1.47;;
8327;SDS011;4201;48.754;8.864;2023-04-25T10:46:54;3.20;;;1.10;;
8327;SDS011;4201;48.754;8.864;2023-04-25T10:49:32;2.10;;;1.00;;
8327;SDS011;4201;48.754;8.864;2023-04-25T10:52:10;1.83;;;0.93;;
8327;SDS011;4201;48.754;8.864;2023-04-25T10:54:39;3.47;;;1.20;;
8327;SDS011;4201;48.754;8.864;2023-04-25T10:57:06;1.90;;;0.87;;
8327;SDS011;4201;48.754;8.864;2023-04-25T10:59:32;3.27;;;1.60;;
8327;SDS011;4201;48.754;8.864;2023-04-25T11:01:58;4.83;;;2.13;;
8327;SDS011;4201;48.754;8.864;2023-04-25T11:04:25;6.80;;;4.23;;
8327;SDS011;4201;48.754;8.864;2023-04-25T11:06:58;3.13;;;2.17;;
8327;SDS011;4201;48.754;8.864;2023-04-25T11:09:26;4.47;;;3.47;;
8327;SDS011;4201;48.754;8.864;2023-04-25T11:11:53;3.80;;;2.90;;
8327;SDS011;4201;48.754;8.864;2023-04-25T11:14:19;10.37;;;3.97;;
8327;SDS011;4201;48.754;8.864;2023-04-25T11:16:46;8.97;;;4.50;;
8327;SDS011;4201;48.754;8.864;2023-04-25T11:19:12;6.57;;;4.70;;
8327;SDS011;4201;48.754;8.864;2023-04-25T11:21:39;7.37;;;4.93;;
8327;SDS011;4201;48.754;8.864;2023-04-25T11:24:06;5.70;;;5.10;;
8327;SDS011;4201;48.754;8.864;2023-04-25T11:26:33;6.50;;;4.40;;
8327;SDS011;4201;48.754;8.864;2023-04-25T11:28:59;6.17;;;4.20;;
8327;SDS011;4201;48.754;8.864;2023-04-25T11:31:25;8.33;;;5.90;;
8327;SDS011;4201;48.754;8.864;2023-04-25T11:33:52;9.17;;;6.60;;
8327;SDS011;4201;48.754;8.864;2023-04-25T11:36:19;8.97;;;6.10;;
8327;SDS011;4201;48.754;8.864;2023-04-25T11:38:45;9.23;;;6.17;;
8327;SDS011;4201;48.754;8.864;2023-04-25T11:41:13;7.10;;;5.50;;
8327;SDS011;4201;48.754;8.864;2023-04-25T11:43:39;5.70;;;4.77;;
8327;SDS011;4201;48.754;8.864;2023-04-25T11:46:06;6.90;;;5.63;;
8327;SDS011;4201;48.754;8.864;2023-04-25T11:48:36;6.63;;;5.30;;
8327;SDS011;4201;48.754;8.864;2023-04-25T11:51:03;7.97;;;6.07;;
8327;SDS011;4201;48.754;8.864;2023-04-25T11:53:30;8.40;;;5.97;;
8327;SDS011;4201;48.754;8.864;2023-04-25T11:55:56;7.57;;;5.70;;
8327;SDS011;4201;48.754;8.864;2023-04-25T11:58:23;8.80;;;6.50;;
8327;SDS011;4201;48.754;8.864;2023-04-25T12:00:50;7.73;;;4.80;;
8327;SDS011;4201;48.754;8.864;2023-04-25T12:03:17;6.47;;;4.40;;
8327;SDS011;4201;48.754;8.864;2023-04-25T12:05:43;5.50;;;3.93;;
8327;SDS011;4201;48.754;8.864;2023-04-25T12:08:10;4.60;;;3.20;;
8327;SDS011;4201;48.754;8.864;2023-04-25T12:10:38;4.90;;;3.57;;
8327;SDS011;4201;48.754;8.864;2023-04-25T12:13:17;5.40;;;4.20;;
8327;SDS011;4201;48.754;8.864;2023-04-25T12:15:45;7.80;;;3.77;;
8327;SDS011;4201;48.754;8.864;2023-04-25T12:18:11;6.27;;;4.10;;
8327;SDS011;4201;48.754;8.864;2023-04-25T12:20:37;6.67;;;4.07;;
8327;SDS011;4201;48.754;8.864;2023-04-25T12:23:05;5.13;;;4.47;;
8327;SDS011;4201;48.754;8.864;2023-04-25T12:25:35;5.97;;;3.60;;
8327;SDS011;4201;48.754;8.864;2023-04-25T12:28:12;4.30;;;3.60;;
8327;SDS011;4201;48.754;8.864;2023-04-25T12:30:56;6.67;;;3.90;;
8327;SDS011;4201;48.754;8.864;2023-04-25T12:33:23;31.30;;;17.87;;
8327;SDS011;4201;48.754;8.864;2023-04-25T12:35:50;6.10;;;4.30;;
8327;SDS011;4201;48.754;8.864;2023-04-25T12:38:20;5.33;;;3.90;;
8327;SDS011;4201;48.754;8.864;2023-04-25T12:40:46;5.93;;;4.73;;
8327;SDS011;4201;48.754;8.864;2023-04-25T12:43:13;8.30;;;5.50;;
8327;SDS011;4201;48.754;8.864;2023-04-25T12:45:39;7.00;;;4.70;;
8327;SDS011;4201;48.754;8.864;2023-04-25T12:48:07;5.27;;;4.30;;
8327;SDS011;4201;48.754;8.864;2023-04-25T12:50:33;6.60;;;4.10;;
8327;SDS011;4201;48.754;8.864;2023-04-25T12:52:59;4.10;;;2.97;;
8327;SDS011;4201;48.754;8.864;2023-04-25T12:55:25;5.60;;;3.40;;
8327;SDS011;4201;48.754;8.864;2023-04-25T12:57:52;7.37;;;4.13;;
8327;SDS011;4201;48.754;8.864;2023-04-25T13:00:18;6.00;;;4.73;;
8327;SDS011;4201;48.754;8.864;2023-04-25T13:02:45;8.43;;;6.33;;
8327;SDS011;4201;48.754;8.864;2023-04-25T13:05:13;7.50;;;5.47;;
8327;SDS011;4201;48.754;8.864;2023-04-25T13:07:39;8.77;;;5.77;;
8327;SDS011;4201;48.754;8.864;2023-04-25T13:10:06;10.03;;;6.10;;
8327;SDS011;4201;48.754;8.864;2023-04-25T13:12:32;7.37;;;5.87;;
8327;SDS011;4201;48.754;8.864;2023-04-25T13:14:59;11.00;;;8.07;;
8327;SDS011;4201;48.754;8.864;2023-04-25T13:17:25;9.93;;;7.50;;
8327;SDS011;4201;48.754;8.864;2023-04-25T13:19:51;10.73;;;8.10;;
8327;SDS011;4201;48.754;8.864;2023-04-25T13:22:19;8.70;;;7.10;;
8327;SDS011;4201;48.754;8.864;2023-04-25T13:24:45;8.47;;;7.10;;
8327;SDS011;4201;48.754;8.864;2023-04-25T13:27:11;7.63;;;6.10;;
8327;SDS011;4201;48.754;8.864;2023-04-25T13:29:38;8.73;;;7.20;;
8327;SDS011;4201;48.754;8.864;2023-04-25T13:32:05;9.77;;;6.20;;
8327;SDS011;4201;48.754;8.864;2023-04-25T13:34:31;9.70;;;6.93;;
8327;SDS011;4201;48.754;8.864;2023-04-25T13:36:58;9.20;;;6.10;;
8327;SDS011;4201;48.754;8.864;2023-04-25T13:39:26;7.77;;;5.50;;
8327;SDS011;4201;48.754;8.864;2023-04-25T13:41:52;7.70;;;5.80;;
8327;SDS011;4201;48.754;8.864;2023-04-25T13:44:19;8.60;;;7.07;;
8327;SDS011;4201;48.754;8.864;2023-04-25T13:46:45;9.63;;;6.20;;
8327;SDS011;4201;48.754;8.864;2023-04-25T13:49:11;7.50;;;6.30;;
8327;SDS011;4201;48.754;8.864;2023-04-25T13:51:37;9.43;;;6.90;;
8327;SDS011;4201;48.754;8.864;2023-04-25T13:54:04;7.57;;;5.93;;
8327;SDS011;4201;48.754;8.864;2023-04-25T13:56:31;9.50;;;7.80;;
8327;SDS011;4201;48.754;8.864;2023-04-25T13:58:58;7.90;;;6.00;;
8327;SDS011;4201;48.754;8.864;2023-04-25T14:01:24;8.80;;;6.57;;
8327;SDS011;4201;48.754;8.864;2023-04-25T14:03:51;7.53;;;5.67;;
8327;SDS011;4201;48.754;8.864;2023-04-25T14:06:17;8.97;;;6.30;;
8327;SDS011;4201;48.754;8.864;2023-04-25T14:08:47;12.50;;;5.60;;
8327;SDS011;4201;48.754;8.864;2023-04-25T14:11:13;6.73;;;6.03;;
8327;SDS011;4201;48.754;8.864;2023-04-25T14:13:41;4.90;;;3.80;;
8327;SDS011;4201;48.754;8.864;2023-04-25T14:16:07;8.67;;;4.93;;
8327;SDS011;4201;48.754;8.864;2023-04-25T14:18:34;5.00;;;4.17;;
8327;SDS011;4201;48.754;8.864;2023-04-25T14:21:00;5.67;;;3.90;;
8327;SDS011;4201;48.754;8.864;2023-04-25T14:23:26;6.23;;;3.60;;
8327;SDS011;4201;48.754;8.864;2023-04-25T14:25:53;3.60;;;2.73;;
8327;SDS011;4201;48.754;8.864;2023-04-25T14:28:19;4.83;;;2.90;;
8327;SDS011;4201;48.754;8.864;2023-04-25T14:30:47;3.90;;;2.80;;
8327;SDS011;4201;48.754;8.864;2023-04-25T14:33:13;3.83;;;2.60;;
8327;SDS011;4201;48.754;8.864;2023-04-25T14:35:39;3.40;;;2.40;;
8327;SDS011;4201;48.754;8.864;2023-04-25T14:38:06;4.00;;;2.83;;
8327;SDS011;4201;48.754;8.864;2023-04-25T14:40:32;3.57;;;2.50;;
8327;SDS011;4201;48.754;8.864;2023-04-25T14:42:59;4.93;;;2.80;;
8327;SDS011;4201;48.754;8.864;2023-04-25T14:45:25;3.73;;;2.70;;
8327;SDS011;4201;48.754;8.864;2023-04-25T14:47:53;3.90;;;2.67;;
8327;SDS011;4201;48.754;8.864;2023-04-25T14:50:19;4.73;;;2.70;;
8327;SDS011;4201;48.754;8.864;2023-04-25T14:52:45;4.03;;;3.03;;
8327;SDS011;4201;48.754;8.864;2023-04-25T14:55:11;4.17;;;3.13;;
8327;SDS011;4201;48.754;8.864;2023-04-25T14:57:38;4.67;;;2.67;;
8327;SDS011;4201;48.754;8.864;2023-04-25T15:00:05;4.30;;;3.37;;
8327;SDS011;4201;48.754;8.864;2023-04-25T15:02:34;4.60;;;2.90;;
8327;SDS011;4201;48.754;8.864;2023-04-25T15:05:01;7.10;;;3.40;;
8327;SDS011;4201;48.754;8.864;2023-04-25T15:07:28;6.27;;;3.67;;
8327;SDS011;4201;48.754;8.864;2023-04-25T15:09:54;4.73;;;3.20;;